Chicago O'Hare International, Illinois
Current Conditions -  °F | °C
As of 8:20 AM on Saturday 20 Dec 2014 (Local Time) from KORD Reporting Station
Haze Haze  
Wind Chill: 30°   Ceiling: 3000
Heat Index: 30°   Visibility: 6mi
Dew Point: 24°   Wind: 3mph
Humidity: 79%   Direction: 210°SSW
Pressure: 30.27"   Gusts: NA
Location:  41.98°N, 87.9°W
Report Text: KORD 201420Z 21003KT 6SM HZ SCT023 OVC030 M01/M04 A3027 RMK AO2 T10111044
Loading
Personal Weather Stations






























Interactive Weather Map New forecast layout! Learn more

10-Day Weather Forecast

Advertisements
Track Severe Weather on mobile